sensor_id;sensor_type;location;lat;lon;timestamp;P1;durP1;ratioP1;P2;durP2;ratioP2
28714;SDS011;15886;49.170;14.572;2023-10-19T00:02:58;20.67;;;10.00;;
28714;SDS011;15886;49.170;14.572;2023-10-19T00:05:32;17.70;;;10.57;;
28714;SDS011;15886;49.170;14.572;2023-10-19T00:08:01;16.98;;;10.30;;
28714;SDS011;15886;49.170;14.572;2023-10-19T00:10:54;17.00;;;10.43;;
28714;SDS011;15886;49.170;14.572;2023-10-19T00:13:42;19.85;;;9.80;;
28714;SDS011;15886;49.170;14.572;2023-10-19T00:16:11;18.77;;;8.57;;
28714;SDS011;15886;49.170;14.572;2023-10-19T00:18:48;15.63;;;7.95;;
28714;SDS011;15886;49.170;14.572;2023-10-19T00:21:19;11.77;;;7.78;;
28714;SDS011;15886;49.170;14.572;2023-10-19T00:23:57;13.02;;;7.90;;
28714;SDS011;15886;49.170;14.572;2023-10-19T00:26:35;14.95;;;8.90;;
28714;SDS011;15886;49.170;14.572;2023-10-19T00:29:49;14.45;;;8.15;;
28714;SDS011;15886;49.170;14.572;2023-10-19T00:33:01;18.05;;;7.63;;
28714;SDS011;15886;49.170;14.572;2023-10-19T00:35:36;17.85;;;9.02;;
28714;SDS011;15886;49.170;14.572;2023-10-19T00:38:36;13.13;;;7.80;;
28714;SDS011;15886;49.170;14.572;2023-10-19T00:41:34;15.07;;;8.02;;
28714;SDS011;15886;49.170;14.572;2023-10-19T00:44:33;18.20;;;8.98;;
28714;SDS011;15886;49.170;14.572;2023-10-19T00:47:35;15.18;;;8.57;;
28714;SDS011;15886;49.170;14.572;2023-10-19T00:53:47;13.95;;;8.15;;
28714;SDS011;15886;49.170;14.572;2023-10-19T00:56:37;14.25;;;7.70;;
28714;SDS011;15886;49.170;14.572;2023-10-19T00:59:11;17.92;;;8.82;;
28714;SDS011;15886;49.170;14.572;2023-10-19T01:01:42;18.33;;;9.27;;
28714;SDS011;15886;49.170;14.572;2023-10-19T01:04:16;21.77;;;8.85;;
28714;SDS011;15886;49.170;14.572;2023-10-19T01:07:03;15.60;;;8.98;;
28714;SDS011;15886;49.170;14.572;2023-10-19T01:09:46;16.67;;;8.32;;
28714;SDS011;15886;49.170;14.572;2023-10-19T01:12:39;16.65;;;8.85;;
28714;SDS011;15886;49.170;14.572;2023-10-19T01:15:12;14.50;;;8.50;;
28714;SDS011;15886;49.170;14.572;2023-10-19T01:18:05;15.68;;;8.30;;
28714;SDS011;15886;49.170;14.572;2023-10-19T01:20:56;17.65;;;8.40;;
28714;SDS011;15886;49.170;14.572;2023-10-19T01:23:41;13.43;;;8.35;;
28714;SDS011;15886;49.170;14.572;2023-10-19T01:26:13;16.00;;;9.00;;
28714;SDS011;15886;49.170;14.572;2023-10-19T01:28:51;17.38;;;9.05;;
28714;SDS011;15886;49.170;14.572;2023-10-19T01:34:57;15.05;;;8.98;;
28714;SDS011;15886;49.170;14.572;2023-10-19T01:37:51;17.88;;;9.63;;
28714;SDS011;15886;49.170;14.572;2023-10-19T01:40:57;16.17;;;8.95;;
28714;SDS011;15886;49.170;14.572;2023-10-19T01:43:51;12.45;;;8.35;;
28714;SDS011;15886;49.170;14.572;2023-10-19T01:46:34;19.48;;;9.13;;
28714;SDS011;15886;49.170;14.572;2023-10-19T01:49:33;16.25;;;8.73;;
28714;SDS011;15886;49.170;14.572;2023-10-19T01:52:02;16.92;;;9.60;;
28714;SDS011;15886;49.170;14.572;2023-10-19T01:54:32;20.67;;;10.00;;
28714;SDS011;15886;49.170;14.572;2023-10-19T01:57:14;16.98;;;9.82;;
28714;SDS011;15886;49.170;14.572;2023-10-19T01:59:51;24.10;;;9.73;;
28714;SDS011;15886;49.170;14.572;2023-10-19T02:02:52;17.27;;;8.60;;
28714;SDS011;15886;49.170;14.572;2023-10-19T02:05:44;23.48;;;11.18;;
28714;SDS011;15886;49.170;14.572;2023-10-19T02:08:37;17.08;;;9.60;;
28714;SDS011;15886;49.170;14.572;2023-10-19T02:11:36;20.45;;;10.23;;
28714;SDS011;15886;49.170;14.572;2023-10-19T02:14:28;23.23;;;12.27;;
28714;SDS011;15886;49.170;14.572;2023-10-19T02:16:59;17.83;;;10.90;;
28714;SDS011;15886;49.170;14.572;2023-10-19T02:19:31;19.77;;;10.50;;
28714;SDS011;15886;49.170;14.572;2023-10-19T02:22:03;22.13;;;14.52;;
28714;SDS011;15886;49.170;14.572;2023-10-19T02:24:41;23.00;;;10.77;;
28714;SDS011;15886;49.170;14.572;2023-10-19T02:30:46;17.67;;;9.85;;
28714;SDS011;15886;49.170;14.572;2023-10-19T02:34:10;23.52;;;9.57;;
28714;SDS011;15886;49.170;14.572;2023-10-19T02:37:26;18.58;;;10.13;;
28714;SDS011;15886;49.170;14.572;2023-10-19T02:40:05;18.10;;;12.10;;
28714;SDS011;15886;49.170;14.572;2023-10-19T02:43:43;25.23;;;11.82;;
28714;SDS011;15886;49.170;14.572;2023-10-19T02:53:06;20.00;;;10.93;;
28714;SDS011;15886;49.170;14.572;2023-10-19T02:55:37;19.50;;;11.45;;
28714;SDS011;15886;49.170;14.572;2023-10-19T02:58:45;20.58;;;11.55;;
28714;SDS011;15886;49.170;14.572;2023-10-19T03:08:57;21.60;;;10.73;;
28714;SDS011;15886;49.170;14.572;2023-10-19T03:11:40;20.15;;;11.43;;
28714;SDS011;15886;49.170;14.572;2023-10-19T03:14:11;21.48;;;10.60;;
28714;SDS011;15886;49.170;14.572;2023-10-19T03:16:43;19.02;;;11.25;;
28714;SDS011;15886;49.170;14.572;2023-10-19T03:19:19;19.55;;;10.93;;
28714;SDS011;15886;49.170;14.572;2023-10-19T03:21:53;18.42;;;10.48;;
28714;SDS011;15886;49.170;14.572;2023-10-19T03:24:51;20.20;;;11.75;;
28714;SDS011;15886;49.170;14.572;2023-10-19T03:27:50;20.10;;;11.48;;
28714;SDS011;15886;49.170;14.572;2023-10-19T03:30:19;27.02;;;14.07;;
28714;SDS011;15886;49.170;14.572;2023-10-19T03:32:55;30.00;;;14.25;;
28714;SDS011;15886;49.170;14.572;2023-10-19T03:35:43;24.40;;;14.32;;
28714;SDS011;15886;49.170;14.572;2023-10-19T03:38:37;24.90;;;13.87;;
28714;SDS011;15886;49.170;14.572;2023-10-19T03:41:28;23.63;;;13.70;;
28714;SDS011;15886;49.170;14.572;2023-10-19T03:45:31;26.38;;;14.30;;
28714;SDS011;15886;49.170;14.572;2023-10-19T03:48:36;30.50;;;16.15;;
28714;SDS011;15886;49.170;14.572;2023-10-19T03:51:27;30.67;;;16.38;;
28714;SDS011;15886;49.170;14.572;2023-10-19T03:54:26;36.53;;;16.45;;
28714;SDS011;15886;49.170;14.572;2023-10-19T03:56:57;33.80;;;18.08;;
28714;SDS011;15886;49.170;14.572;2023-10-19T03:59:30;33.78;;;15.98;;
28714;SDS011;15886;49.170;14.572;2023-10-19T04:08:41;36.72;;;16.02;;
28714;SDS011;15886;49.170;14.572;2023-10-19T04:12:16;36.78;;;17.38;;
28714;SDS011;15886;49.170;14.572;2023-10-19T04:14:47;31.52;;;17.40;;
28714;SDS011;15886;49.170;14.572;2023-10-19T04:17:22;33.38;;;17.33;;
28714;SDS011;15886;49.170;14.572;2023-10-19T04:20:02;33.88;;;17.25;;
28714;SDS011;15886;49.170;14.572;2023-10-19T04:23:20;35.83;;;19.33;;
28714;SDS011;15886;49.170;14.572;2023-10-19T04:26:11;39.13;;;17.13;;
28714;SDS011;15886;49.170;14.572;2023-10-19T04:32:04;38.00;;;17.63;;
28714;SDS011;15886;49.170;14.572;2023-10-19T04:35:32;30.88;;;17.02;;
28714;SDS011;15886;49.170;14.572;2023-10-19T04:38:29;45.58;;;18.02;;
28714;SDS011;15886;49.170;14.572;2023-10-19T04:41:04;42.00;;;18.23;;
28714;SDS011;15886;49.170;14.572;2023-10-19T04:43:37;31.85;;;17.90;;
28714;SDS011;15886;49.170;14.572;2023-10-19T04:46:08;39.83;;;19.33;;
28714;SDS011;15886;49.170;14.572;2023-10-19T04:49:02;38.85;;;19.45;;
28714;SDS011;15886;49.170;14.572;2023-10-19T04:51:31;38.10;;;20.00;;
28714;SDS011;15886;49.170;14.572;2023-10-19T04:54:05;34.95;;;18.17;;
28714;SDS011;15886;49.170;14.572;2023-10-19T04:56:49;41.20;;;20.80;;
28714;SDS011;15886;49.170;14.572;2023-10-19T04:59:20;40.75;;;20.50;;
28714;SDS011;15886;49.170;14.572;2023-10-19T05:02:00;35.92;;;19.25;;
28714;SDS011;15886;49.170;14.572;2023-10-19T05:08:27;36.03;;;18.17;;
28714;SDS011;15886;49.170;14.572;2023-10-19T05:11:02;46.40;;;22.13;;
28714;SDS011;15886;49.170;14.572;2023-10-19T05:13:32;46.85;;;20.30;;
28714;SDS011;15886;49.170;14.572;2023-10-19T05:16:02;40.63;;;20.85;;
28714;SDS011;15886;49.170;14.572;2023-10-19T05:18:43;41.45;;;21.65;;
28714;SDS011;15886;49.170;14.572;2023-10-19T05:21:13;52.58;;;24.17;;
28714;SDS011;15886;49.170;14.572;2023-10-19T05:23:42;48.17;;;21.55;;
28714;SDS011;15886;49.170;14.572;2023-10-19T05:26:11;52.55;;;23.60;;
28714;SDS011;15886;49.170;14.572;2023-10-19T05:28:44;46.17;;;23.17;;
28714;SDS011;15886;49.170;14.572;2023-10-19T05:31:44;47.05;;;25.45;;
28714;SDS011;15886;49.170;14.572;2023-10-19T05:34:31;45.17;;;23.63;;
28714;SDS011;15886;49.170;14.572;2023-10-19T05:37:07;54.97;;;25.52;;
28714;SDS011;15886;49.170;14.572;2023-10-19T05:39:36;52.17;;;24.33;;
28714;SDS011;15886;49.170;14.572;2023-10-19T05:42:11;47.60;;;23.88;;
28714;SDS011;15886;49.170;14.572;2023-10-19T05:45:09;52.17;;;24.60;;
28714;SDS011;15886;49.170;14.572;2023-10-19T05:54:54;50.70;;;24.13;;
28714;SDS011;15886;49.170;14.572;2023-10-19T06:01:14;64.70;;;25.95;;
28714;SDS011;15886;49.170;14.572;2023-10-19T06:03:59;65.85;;;27.48;;
28714;SDS011;15886;49.170;14.572;2023-10-19T06:07:01;54.78;;;26.65;;
28714;SDS011;15886;49.170;14.572;2023-10-19T06:09:41;54.05;;;26.73;;
28714;SDS011;15886;49.170;14.572;2023-10-19T06:12:30;48.55;;;23.90;;
28714;SDS011;15886;49.170;14.572;2023-10-19T06:14:59;57.53;;;26.17;;
28714;SDS011;15886;49.170;14.572;2023-10-19T06:17:50;52.83;;;24.85;;
28714;SDS011;15886;49.170;14.572;2023-10-19T06:20:44;58.60;;;25.90;;
28714;SDS011;15886;49.170;14.572;2023-10-19T06:23:29;58.33;;;27.45;;
28714;SDS011;15886;49.170;14.572;2023-10-19T06:29:07;61.63;;;25.52;;
28714;SDS011;15886;49.170;14.572;2023-10-19T06:31:51;56.92;;;26.45;;
28714;SDS011;15886;49.170;14.572;2023-10-19T06:35:11;57.10;;;27.30;;
28714;SDS011;15886;49.170;14.572;2023-10-19T06:38:45;59.47;;;24.73;;
28714;SDS011;15886;49.170;14.572;2023-10-19T06:41:32;46.80;;;25.27;;
28714;SDS011;15886;49.170;14.572;2023-10-19T06:44:17;55.38;;;27.63;;
28714;SDS011;15886;49.170;14.572;2023-10-19T06:47:19;50.85;;;25.55;;
28714;SDS011;15886;49.170;14.572;2023-10-19T06:49:59;58.35;;;27.42;;
28714;SDS011;15886;49.170;14.572;2023-10-19T06:52:45;62.25;;;26.75;;
28714;SDS011;15886;49.170;14.572;2023-10-19T06:59:24;57.63;;;26.10;;
28714;SDS011;15886;49.170;14.572;2023-10-19T07:01:54;58.53;;;27.80;;
28714;SDS011;15886;49.170;14.572;2023-10-19T07:04:22;51.83;;;26.40;;
28714;SDS011;15886;49.170;14.572;2023-10-19T07:06:51;53.55;;;26.95;;
28714;SDS011;15886;49.170;14.572;2023-10-19T07:09:22;55.13;;;27.30;;
28714;SDS011;15886;49.170;14.572;2023-10-19T07:11:53;52.25;;;28.00;;
28714;SDS011;15886;49.170;14.572;2023-10-19T07:14:53;58.70;;;25.52;;
28714;SDS011;15886;49.170;14.572;2023-10-19T07:17:40;65.60;;;28.67;;
28714;SDS011;15886;49.170;14.572;2023-10-19T07:20:47;87.93;;;37.03;;
28714;SDS011;15886;49.170;14.572;2023-10-19T07:23:17;57.30;;;26.42;;
28714;SDS011;15886;49.170;14.572;2023-10-19T07:25:47;53.00;;;26.70;;
28714;SDS011;15886;49.170;14.572;2023-10-19T07:28:54;52.08;;;26.55;;
28714;SDS011;15886;49.170;14.572;2023-10-19T07:31:32;95.15;;;39.08;;
28714;SDS011;15886;49.170;14.572;2023-10-19T07:37:23;78.25;;;36.30;;
28714;SDS011;15886;49.170;14.572;2023-10-19T07:40:05;53.47;;;26.60;;
28714;SDS011;15886;49.170;14.572;2023-10-19T07:42:49;61.20;;;28.37;;
28714;SDS011;15886;49.170;14.572;2023-10-19T07:45:34;62.50;;;30.85;;
28714;SDS011;15886;49.170;14.572;2023-10-19T07:48:15;67.95;;;30.67;;
28714;SDS011;15886;49.170;14.572;2023-10-19T07:50:51;64.88;;;30.35;;
28714;SDS011;15886;49.170;14.572;2023-10-19T07:53:53;68.97;;;31.17;;
28714;SDS011;15886;49.170;14.572;2023-10-19T07:56:31;50.13;;;24.52;;
28714;SDS011;15886;49.170;14.572;2023-10-19T07:59:02;49.72;;;24.42;;
28714;SDS011;15886;49.170;14.572;2023-10-19T08:01:31;57.08;;;28.50;;
28714;SDS011;15886;49.170;14.572;2023-10-19T08:04:15;57.25;;;24.95;;
28714;SDS011;15886;49.170;14.572;2023-10-19T08:07:17;56.05;;;27.90;;
28714;SDS011;15886;49.170;14.572;2023-10-19T08:09:56;47.42;;;27.15;;
28714;SDS011;15886;49.170;14.572;2023-10-19T08:12:34;63.70;;;29.75;;
28714;SDS011;15886;49.170;14.572;2023-10-19T08:15:44;70.88;;;29.70;;
28714;SDS011;15886;49.170;14.572;2023-10-19T08:21:54;56.45;;;25.05;;
28714;SDS011;15886;49.170;14.572;2023-10-19T08:24:24;52.92;;;27.15;;
28714;SDS011;15886;49.170;14.572;2023-10-19T08:30:08;50.83;;;24.50;;
28714;SDS011;15886;49.170;14.572;2023-10-19T08:32:52;55.17;;;23.67;;
28714;SDS011;15886;49.170;14.572;2023-10-19T08:35:26;55.80;;;25.17;;
28714;SDS011;15886;49.170;14.572;2023-10-19T08:37:56;55.55;;;26.80;;
28714;SDS011;15886;49.170;14.572;2023-10-19T08:40:25;56.80;;;23.63;;
28714;SDS011;15886;49.170;14.572;2023-10-19T08:43:15;48.17;;;24.88;;
28714;SDS011;15886;49.170;14.572;2023-10-19T08:45:57;49.80;;;24.92;;
28714;SDS011;15886;49.170;14.572;2023-10-19T08:48:38;58.80;;;26.13;;
28714;SDS011;15886;49.170;14.572;2023-10-19T08:51:19;54.85;;;26.17;;
28714;SDS011;15886;49.170;14.572;2023-10-19T08:54:06;52.28;;;25.85;;
28714;SDS011;15886;49.170;14.572;2023-10-19T08:56:58;53.03;;;24.45;;
28714;SDS011;15886;49.170;14.572;2023-10-19T08:59:46;49.25;;;25.83;;
28714;SDS011;15886;49.170;14.572;2023-10-19T09:02:54;51.63;;;23.90;;
28714;SDS011;15886;49.170;14.572;2023-10-19T09:05:31;55.03;;;25.23;;
28714;SDS011;15886;49.170;14.572;2023-10-19T09:08:02;52.63;;;25.13;;
28714;SDS011;15886;49.170;14.572;2023-10-19T09:10:39;47.85;;;25.15;;
28714;SDS011;15886;49.170;14.572;2023-10-19T09:13:17;47.65;;;24.63;;
28714;SDS011;15886;49.170;14.572;2023-10-19T09:16:21;48.10;;;24.13;;
28714;SDS011;15886;49.170;14.572;2023-10-19T09:19:10;53.10;;;24.50;;
28714;SDS011;15886;49.170;14.572;2023-10-19T09:25:22;52.30;;;25.17;;
28714;SDS011;15886;49.170;14.572;2023-10-19T09:28:05;45.88;;;23.90;;
28714;SDS011;15886;49.170;14.572;2023-10-19T09:31:02;44.28;;;23.17;;
28714;SDS011;15886;49.170;14.572;2023-10-19T09:33:33;44.05;;;23.58;;
28714;SDS011;15886;49.170;14.572;2023-10-19T09:36:19;53.35;;;25.33;;
28714;SDS011;15886;49.170;14.572;2023-10-19T09:39:10;48.30;;;25.17;;
28714;SDS011;15886;49.170;14.572;2023-10-19T09:42:14;42.28;;;21.80;;
28714;SDS011;15886;49.170;14.572;2023-10-19T09:45:20;45.08;;;24.40;;
28714;SDS011;15886;49.170;14.572;2023-10-19T09:47:57;54.30;;;25.95;;
28714;SDS011;15886;49.170;14.572;2023-10-19T09:50:40;46.42;;;23.10;;
28714;SDS011;15886;49.170;14.572;2023-10-19T09:53:09;47.05;;;22.98;;
28714;SDS011;15886;49.170;14.572;2023-10-19T10:02:10;42.38;;;22.48;;
28714;SDS011;15886;49.170;14.572;2023-10-19T10:04:43;40.35;;;21.60;;
28714;SDS011;15886;49.170;14.572;2023-10-19T10:07:16;41.42;;;20.73;;
28714;SDS011;15886;49.170;14.572;2023-10-19T10:09:54;46.35;;;21.55;;
28714;SDS011;15886;49.170;14.572;2023-10-19T10:12:41;48.75;;;21.73;;
28714;SDS011;15886;49.170;14.572;2023-10-19T10:15:38;41.40;;;21.13;;
28714;SDS011;15886;49.170;14.572;2023-10-19T10:18:26;42.55;;;22.00;;
28714;SDS011;15886;49.170;14.572;2023-10-19T10:24:31;45.67;;;22.48;;
28714;SDS011;15886;49.170;14.572;2023-10-19T10:30:16;43.08;;;21.55;;
28714;SDS011;15886;49.170;14.572;2023-10-19T10:32:59;43.05;;;20.73;;
28714;SDS011;15886;49.170;14.572;2023-10-19T10:38:10;43.80;;;21.60;;
28714;SDS011;15886;49.170;14.572;2023-10-19T10:40:48;36.00;;;19.33;;
28714;SDS011;15886;49.170;14.572;2023-10-19T10:43:23;36.58;;;19.25;;
28714;SDS011;15886;49.170;14.572;2023-10-19T10:46:27;44.50;;;24.17;;
28714;SDS011;15886;49.170;14.572;2023-10-19T10:49:07;40.15;;;19.85;;
28714;SDS011;15886;49.170;14.572;2023-10-19T10:52:00;35.05;;;19.77;;
28714;SDS011;15886;49.170;14.572;2023-10-19T10:54:38;72.55;;;34.33;;
28714;SDS011;15886;49.170;14.572;2023-10-19T11:00:13;41.30;;;22.15;;
28714;SDS011;15886;49.170;14.572;2023-10-19T11:07:05;42.20;;;21.15;;
28714;SDS011;15886;49.170;14.572;2023-10-19T11:09:46;35.53;;;19.13;;
28714;SDS011;15886;49.170;14.572;2023-10-19T11:12:15;36.80;;;20.10;;
28714;SDS011;15886;49.170;14.572;2023-10-19T11:17:41;42.38;;;21.30;;
28714;SDS011;15886;49.170;14.572;2023-10-19T11:20:56;40.88;;;22.00;;
28714;SDS011;15886;49.170;14.572;2023-10-19T11:23:44;34.38;;;21.60;;
28714;SDS011;15886;49.170;14.572;2023-10-19T11:26:15;46.85;;;23.38;;
28714;SDS011;15886;49.170;14.572;2023-10-19T11:28:46;41.60;;;22.30;;
28714;SDS011;15886;49.170;14.572;2023-10-19T11:31:25;34.50;;;20.35;;
28714;SDS011;15886;49.170;14.572;2023-10-19T11:34:11;34.80;;;19.60;;
28714;SDS011;15886;49.170;14.572;2023-10-19T11:37:04;46.40;;;23.75;;
28714;SDS011;15886;49.170;14.572;2023-10-19T11:39:51;45.42;;;21.90;;
28714;SDS011;15886;49.170;14.572;2023-10-19T11:42:38;39.22;;;21.17;;
28714;SDS011;15886;49.170;14.572;2023-10-19T11:45:17;36.20;;;19.73;;
28714;SDS011;15886;49.170;14.572;2023-10-19T11:47:51;33.95;;;19.55;;
28714;SDS011;15886;49.170;14.572;2023-10-19T11:50:21;41.90;;;20.45;;
28714;SDS011;15886;49.170;14.572;2023-10-19T11:52:54;40.40;;;20.95;;
28714;SDS011;15886;49.170;14.572;2023-10-19T11:58:58;35.42;;;18.23;;
28714;SDS011;15886;49.170;14.572;2023-10-19T12:01:28;36.85;;;19.90;;
28714;SDS011;15886;49.170;14.572;2023-10-19T12:04:22;39.03;;;21.58;;
28714;SDS011;15886;49.170;14.572;2023-10-19T12:07:27;36.15;;;21.65;;
28714;SDS011;15886;49.170;14.572;2023-10-19T12:10:10;40.60;;;20.65;;
28714;SDS011;15886;49.170;14.572;2023-10-19T12:13:28;48.10;;;21.35;;
28714;SDS011;15886;49.170;14.572;2023-10-19T12:16:04;40.00;;;21.35;;
28714;SDS011;15886;49.170;14.572;2023-10-19T12:18:42;38.05;;;20.60;;
28714;SDS011;15886;49.170;14.572;2023-10-19T12:21:30;36.30;;;20.25;;
28714;SDS011;15886;49.170;14.572;2023-10-19T12:24:18;39.17;;;20.17;;
28714;SDS011;15886;49.170;14.572;2023-10-19T12:27:08;33.88;;;18.10;;
28714;SDS011;15886;49.170;14.572;2023-10-19T12:29:36;36.92;;;21.05;;
28714;SDS011;15886;49.170;14.572;2023-10-19T12:32:06;40.17;;;21.58;;
28714;SDS011;15886;49.170;14.572;2023-10-19T12:34:47;41.08;;;21.67;;
28714;SDS011;15886;49.170;14.572;2023-10-19T12:37:32;50.72;;;26.27;;
28714;SDS011;15886;49.170;14.572;2023-10-19T12:40:44;47.75;;;23.33;;
28714;SDS011;15886;49.170;14.572;2023-10-19T12:43:50;37.60;;;18.98;;
28714;SDS011;15886;49.170;14.572;2023-10-19T12:46:53;42.88;;;21.10;;
28714;SDS011;15886;49.170;14.572;2023-10-19T12:49:34;45.35;;;24.35;;
28714;SDS011;15886;49.170;14.572;2023-10-19T12:55:14;41.92;;;22.38;;
28714;SDS011;15886;49.170;14.572;2023-10-19T12:57:58;37.60;;;19.33;;
28714;SDS011;15886;49.170;14.572;2023-10-19T13:00:38;40.25;;;19.98;;
28714;SDS011;15886;49.170;14.572;2023-10-19T13:03:20;47.85;;;24.50;;
28714;SDS011;15886;49.170;14.572;2023-10-19T13:05:51;40.05;;;22.30;;
28714;SDS011;15886;49.170;14.572;2023-10-19T13:08:20;38.83;;;19.92;;
28714;SDS011;15886;49.170;14.572;2023-10-19T13:10:52;37.45;;;20.55;;
28714;SDS011;15886;49.170;14.572;2023-10-19T13:13:41;36.45;;;20.27;;
28714;SDS011;15886;49.170;14.572;2023-10-19T13:16:17;42.25;;;24.45;;
28714;SDS011;15886;49.170;14.572;2023-10-19T13:18:51;34.42;;;20.38;;
28714;SDS011;15886;49.170;14.572;2023-10-19T13:21:21;35.60;;;19.15;;
28714;SDS011;15886;49.170;14.572;2023-10-19T13:24:02;34.50;;;19.48;;
28714;SDS011;15886;49.170;14.572;2023-10-19T13:27:11;32.22;;;18.08;;
28714;SDS011;15886;49.170;14.572;2023-10-19T13:30:23;32.70;;;18.50;;
28714;SDS011;15886;49.170;14.572;2023-10-19T13:33:10;42.72;;;20.75;;
28714;SDS011;15886;49.170;14.572;2023-10-19T13:39:45;39.90;;;21.48;;
28714;SDS011;15886;49.170;14.572;2023-10-19T13:42:33;38.72;;;21.88;;
28714;SDS011;15886;49.170;14.572;2023-10-19T13:45:11;34.60;;;18.65;;
28714;SDS011;15886;49.170;14.572;2023-10-19T13:47:43;29.25;;;17.60;;
28714;SDS011;15886;49.170;14.572;2023-10-19T13:50:12;36.53;;;19.15;;
28714;SDS011;15886;49.170;14.572;2023-10-19T13:52:40;36.00;;;20.20;;
28714;SDS011;15886;49.170;14.572;2023-10-19T14:05:45;90.25;;;40.97;;
28714;SDS011;15886;49.170;14.572;2023-10-19T14:08:42;108.28;;;48.50;;
28714;SDS011;15886;49.170;14.572;2023-10-19T14:11:22;156.68;;;73.57;;
28714;SDS011;15886;49.170;14.572;2023-10-19T14:14:33;103.07;;;48.85;;
28714;SDS011;15886;49.170;14.572;2023-10-19T14:17:04;61.13;;;30.73;;
28714;SDS011;15886;49.170;14.572;2023-10-19T14:20:21;41.25;;;23.20;;
28714;SDS011;15886;49.170;14.572;2023-10-19T14:27:06;45.03;;;24.15;;
28714;SDS011;15886;49.170;14.572;2023-10-19T14:29:46;43.20;;;22.80;;
28714;SDS011;15886;49.170;14.572;2023-10-19T14:32:26;48.08;;;28.15;;
28714;SDS011;15886;49.170;14.572;2023-10-19T14:34:56;47.35;;;26.77;;
28714;SDS011;15886;49.170;14.572;2023-10-19T14:40:54;61.90;;;29.98;;
28714;SDS011;15886;49.170;14.572;2023-10-19T14:43:24;52.47;;;28.52;;
28714;SDS011;15886;49.170;14.572;2023-10-19T14:45:59;59.13;;;30.40;;
28714;SDS011;15886;49.170;14.572;2023-10-19T14:48:49;47.22;;;24.15;;
28714;SDS011;15886;49.170;14.572;2023-10-19T14:51:41;62.08;;;33.88;;
28714;SDS011;15886;49.170;14.572;2023-10-19T14:54:11;65.63;;;36.10;;
28714;SDS011;15886;49.170;14.572;2023-10-19T14:56:54;57.70;;;28.40;;
28714;SDS011;15886;49.170;14.572;2023-10-19T15:00:11;51.42;;;29.77;;
28714;SDS011;15886;49.170;14.572;2023-10-19T15:02:53;58.80;;;27.10;;
28714;SDS011;15886;49.170;14.572;2023-10-19T15:05:31;42.97;;;23.25;;
28714;SDS011;15886;49.170;14.572;2023-10-19T15:08:49;40.88;;;23.83;;
28714;SDS011;15886;49.170;14.572;2023-10-19T15:11:26;42.92;;;22.95;;
28714;SDS011;15886;49.170;14.572;2023-10-19T15:13:54;37.88;;;21.58;;
28714;SDS011;15886;49.170;14.572;2023-10-19T15:24:21;41.50;;;24.73;;
28714;SDS011;15886;49.170;14.572;2023-10-19T15:28:14;52.20;;;26.05;;
28714;SDS011;15886;49.170;14.572;2023-10-19T15:30:48;50.50;;;26.67;;
28714;SDS011;15886;49.170;14.572;2023-10-19T15:41:55;49.10;;;26.83;;
28714;SDS011;15886;49.170;14.572;2023-10-19T15:45:10;51.95;;;26.00;;
28714;SDS011;15886;49.170;14.572;2023-10-19T15:47:40;47.53;;;24.95;;
28714;SDS011;15886;49.170;14.572;2023-10-19T15:50:48;49.67;;;25.63;;
28714;SDS011;15886;49.170;14.572;2023-10-19T15:54:18;65.75;;;33.55;;
28714;SDS011;15886;49.170;14.572;2023-10-19T15:58:11;54.15;;;29.08;;
28714;SDS011;15886;49.170;14.572;2023-10-19T16:03:48;47.53;;;25.52;;
28714;SDS011;15886;49.170;14.572;2023-10-19T16:16:50;46.60;;;25.13;;
28714;SDS011;15886;49.170;14.572;2023-10-19T16:20:18;51.13;;;27.88;;
28714;SDS011;15886;49.170;14.572;2023-10-19T16:23:47;53.22;;;28.52;;
28714;SDS011;15886;49.170;14.572;2023-10-19T16:27:18;88.50;;;44.35;;
28714;SDS011;15886;49.170;14.572;2023-10-19T16:30:57;79.15;;;45.47;;
28714;SDS011;15886;49.170;14.572;2023-10-19T16:34:38;70.68;;;37.13;;
28714;SDS011;15886;49.170;14.572;2023-10-19T16:37:44;65.82;;;35.50;;
28714;SDS011;15886;49.170;14.572;2023-10-19T16:40:33;62.38;;;35.42;;
28714;SDS011;15886;49.170;14.572;2023-10-19T16:43:11;62.08;;;33.85;;
28714;SDS011;15886;49.170;14.572;2023-10-19T16:46:03;52.13;;;30.02;;
28714;SDS011;15886;49.170;14.572;2023-10-19T16:53:24;47.47;;;26.60;;
28714;SDS011;15886;49.170;14.572;2023-10-19T16:56:33;56.30;;;29.20;;
28714;SDS011;15886;49.170;14.572;2023-10-19T17:00:03;54.17;;;28.88;;
28714;SDS011;15886;49.170;14.572;2023-10-19T17:02:32;48.45;;;27.00;;
28714;SDS011;15886;49.170;14.572;2023-10-19T17:05:00;49.75;;;27.17;;
28714;SDS011;15886;49.170;14.572;2023-10-19T17:07:28;53.00;;;28.70;;
28714;SDS011;15886;49.170;14.572;2023-10-19T17:09:57;46.90;;;26.30;;
28714;SDS011;15886;49.170;14.572;2023-10-19T17:12:25;46.58;;;27.48;;
28714;SDS011;15886;49.170;14.572;2023-10-19T17:14:55;52.83;;;30.17;;
28714;SDS011;15886;49.170;14.572;2023-10-19T17:17:23;53.65;;;30.15;;
28714;SDS011;15886;49.170;14.572;2023-10-19T17:19:51;53.33;;;30.23;;
28714;SDS011;15886;49.170;14.572;2023-10-19T17:22:20;50.45;;;28.33;;
28714;SDS011;15886;49.170;14.572;2023-10-19T17:24:48;58.03;;;34.38;;
28714;SDS011;15886;49.170;14.572;2023-10-19T17:27:16;55.03;;;32.30;;
28714;SDS011;15886;49.170;14.572;2023-10-19T17:29:44;50.22;;;29.50;;
28714;SDS011;15886;49.170;14.572;2023-10-19T17:32:13;61.25;;;33.92;;
28714;SDS011;15886;49.170;14.572;2023-10-19T17:34:41;60.88;;;32.90;;
28714;SDS011;15886;49.170;14.572;2023-10-19T17:37:10;59.15;;;34.40;;
28714;SDS011;15886;49.170;14.572;2023-10-19T17:39:40;56.53;;;29.73;;
28714;SDS011;15886;49.170;14.572;2023-10-19T17:42:10;59.72;;;32.90;;
28714;SDS011;15886;49.170;14.572;2023-10-19T17:44:40;67.10;;;33.42;;
28714;SDS011;15886;49.170;14.572;2023-10-19T17:47:09;54.85;;;31.90;;
28714;SDS011;15886;49.170;14.572;2023-10-19T17:49:37;58.70;;;33.28;;
28714;SDS011;15886;49.170;14.572;2023-10-19T17:52:06;59.78;;;34.60;;
28714;SDS011;15886;49.170;14.572;2023-10-19T17:54:34;76.63;;;38.83;;
28714;SDS011;15886;49.170;14.572;2023-10-19T17:57:03;63.00;;;34.35;;
28714;SDS011;15886;49.170;14.572;2023-10-19T17:59:31;68.75;;;34.88;;
28714;SDS011;15886;49.170;14.572;2023-10-19T18:01:59;59.78;;;30.88;;
28714;SDS011;15886;49.170;14.572;2023-10-19T18:04:27;59.40;;;31.40;;
28714;SDS011;15886;49.170;14.572;2023-10-19T18:06:58;63.47;;;32.78;;
28714;SDS011;15886;49.170;14.572;2023-10-19T18:09:27;58.58;;;30.20;;
28714;SDS011;15886;49.170;14.572;2023-10-19T18:11:56;61.83;;;35.95;;
28714;SDS011;15886;49.170;14.572;2023-10-19T18:14:24;60.85;;;34.20;;
28714;SDS011;15886;49.170;14.572;2023-10-19T18:16:52;63.00;;;34.67;;
28714;SDS011;15886;49.170;14.572;2023-10-19T18:19:20;80.03;;;42.05;;
28714;SDS011;15886;49.170;14.572;2023-10-19T18:21:49;156.35;;;67.43;;
28714;SDS011;15886;49.170;14.572;2023-10-19T18:24:21;109.00;;;53.53;;
28714;SDS011;15886;49.170;14.572;2023-10-19T18:26:49;99.55;;;47.08;;
28714;SDS011;15886;49.170;14.572;2023-10-19T18:29:17;62.70;;;34.40;;